Jiutai, China
Current Conditions -  °F | °C
As of 8:00 PM on Thursday 23 Oct 2014 (Local Time) from ZYCC Reporting Station
Smoke Smoke  
Wind Chill: 55°   Ceiling: Unl
Heat Index: 55°   Visibility: 1.2mi
Dew Point: 41°   Wind: 9mph
Humidity: 58%   Direction: 180°S
Pressure: 29.85"   Gusts: NA
Location:  44.15°N, 125.84°E
Report Text: ZYCC 231200Z 18004MPS 2000 FU FEW023 13/05 Q1011 NOSIG
Loading
Personal Weather Stations






























Interactive Weather Map
Tropical Storm Tracking
New forecast layout! Learn more

10-Day Weather Forecast

Advertisements
Track Severe Weather on mobile